Terminal Aerodrome Forecast
Issued by NWS

Home | Current Version | Previous Version | Text Only | Print | Product List | Glossary On
Versions: 1 2 3 4 5 6 7 8 9 10 11 12 13 14
000
FTUS42 KFFC 280532
TAFRYY
TAF
KRYY 280532Z 2806/2906 17003KT 6SM BR BKN004
     FM281600 17007KT P6SM BKN015
     FM281900 17009KT P6SM BKN035
     FM282300 19010KT P6SM SCT035
     FM290100 18008KT P6SM SCT250
      AMD NOT SKED TIL 281200=

USA.gov is the U.S. government's official web portal to all federal, state and local government web resources and services.